sensor_id;sensor_type;location;lat;lon;timestamp;P1;durP1;ratioP1;P2;durP2;ratioP2
10244;SDS011;5167;52.164;10.530;2023-04-06T00:00:18;6.80;;;4.43;;
10244;SDS011;5167;52.164;10.530;2023-04-06T00:02:43;6.03;;;4.83;;
10244;SDS011;5167;52.164;10.530;2023-04-06T00:05:09;7.37;;;5.10;;
10244;SDS011;5167;52.164;10.530;2023-04-06T00:07:35;6.23;;;4.90;;
10244;SDS011;5167;52.164;10.530;2023-04-06T00:10:00;7.97;;;4.37;;
10244;SDS011;5167;52.164;10.530;2023-04-06T00:12:26;8.20;;;5.10;;
10244;SDS011;5167;52.164;10.530;2023-04-06T00:14:52;7.23;;;4.53;;
10244;SDS011;5167;52.164;10.530;2023-04-06T00:17:17;7.17;;;4.73;;
10244;SDS011;5167;52.164;10.530;2023-04-06T00:19:43;8.97;;;4.93;;
10244;SDS011;5167;52.164;10.530;2023-04-06T00:22:08;9.30;;;5.00;;
10244;SDS011;5167;52.164;10.530;2023-04-06T00:24:34;7.57;;;4.70;;
10244;SDS011;5167;52.164;10.530;2023-04-06T00:27:00;7.30;;;4.80;;
10244;SDS011;5167;52.164;10.530;2023-04-06T00:29:26;9.13;;;4.23;;
10244;SDS011;5167;52.164;10.530;2023-04-06T00:31:51;6.43;;;4.60;;
10244;SDS011;5167;52.164;10.530;2023-04-06T00:34:17;7.87;;;4.70;;
10244;SDS011;5167;52.164;10.530;2023-04-06T00:36:42;6.37;;;4.93;;
10244;SDS011;5167;52.164;10.530;2023-04-06T00:39:08;7.10;;;4.57;;
10244;SDS011;5167;52.164;10.530;2023-04-06T00:41:34;9.70;;;4.80;;
10244;SDS011;5167;52.164;10.530;2023-04-06T00:44:00;8.40;;;4.20;;
10244;SDS011;5167;52.164;10.530;2023-04-06T00:46:25;6.70;;;4.77;;
10244;SDS011;5167;52.164;10.530;2023-04-06T00:48:51;12.70;;;5.20;;
10244;SDS011;5167;52.164;10.530;2023-04-06T00:51:16;7.77;;;5.07;;
10244;SDS011;5167;52.164;10.530;2023-04-06T00:53:42;7.70;;;5.03;;
10244;SDS011;5167;52.164;10.530;2023-04-06T00:56:07;8.33;;;4.83;;
10244;SDS011;5167;52.164;10.530;2023-04-06T00:58:34;9.87;;;4.50;;
10244;SDS011;5167;52.164;10.530;2023-04-06T01:01:02;12.43;;;5.30;;
10244;SDS011;5167;52.164;10.530;2023-04-06T01:03:28;5.30;;;4.77;;
10244;SDS011;5167;52.164;10.530;2023-04-06T01:05:53;9.63;;;5.27;;
10244;SDS011;5167;52.164;10.530;2023-04-06T01:08:23;10.43;;;4.33;;
10244;SDS011;5167;52.164;10.530;2023-04-06T01:10:48;6.00;;;4.60;;
10244;SDS011;5167;52.164;10.530;2023-04-06T01:13:14;6.73;;;4.67;;
10244;SDS011;5167;52.164;10.530;2023-04-06T01:15:40;6.83;;;4.83;;
10244;SDS011;5167;52.164;10.530;2023-04-06T01:18:07;7.33;;;4.73;;
10244;SDS011;5167;52.164;10.530;2023-04-06T01:20:35;7.70;;;4.63;;
10244;SDS011;5167;52.164;10.530;2023-04-06T01:23:01;6.47;;;4.80;;
10244;SDS011;5167;52.164;10.530;2023-04-06T01:25:26;8.60;;;4.77;;
10244;SDS011;5167;52.164;10.530;2023-04-06T01:27:52;6.17;;;4.77;;
10244;SDS011;5167;52.164;10.530;2023-04-06T01:30:17;8.73;;;5.07;;
10244;SDS011;5167;52.164;10.530;2023-04-06T01:32:43;10.47;;;4.57;;
10244;SDS011;5167;52.164;10.530;2023-04-06T01:35:09;13.50;;;5.57;;
10244;SDS011;5167;52.164;10.530;2023-04-06T01:37:35;6.70;;;4.87;;
10244;SDS011;5167;52.164;10.530;2023-04-06T01:40:01;5.97;;;4.50;;
10244;SDS011;5167;52.164;10.530;2023-04-06T01:42:28;6.20;;;5.60;;
10244;SDS011;5167;52.164;10.530;2023-04-06T01:44:53;8.33;;;4.90;;
10244;SDS011;5167;52.164;10.530;2023-04-06T01:47:19;7.03;;;4.90;;
10244;SDS011;5167;52.164;10.530;2023-04-06T01:49:45;7.67;;;4.80;;
10244;SDS011;5167;52.164;10.530;2023-04-06T01:52:10;10.10;;;4.70;;
10244;SDS011;5167;52.164;10.530;2023-04-06T01:54:36;6.23;;;4.63;;
10244;SDS011;5167;52.164;10.530;2023-04-06T01:57:01;9.73;;;5.33;;
10244;SDS011;5167;52.164;10.530;2023-04-06T01:59:27;8.47;;;5.23;;
10244;SDS011;5167;52.164;10.530;2023-04-06T02:01:52;8.90;;;5.20;;
10244;SDS011;5167;52.164;10.530;2023-04-06T02:04:17;5.27;;;4.77;;
10244;SDS011;5167;52.164;10.530;2023-04-06T02:06:43;10.37;;;5.20;;
10244;SDS011;5167;52.164;10.530;2023-04-06T02:09:08;9.23;;;5.43;;
10244;SDS011;5167;52.164;10.530;2023-04-06T02:11:34;9.13;;;5.53;;
10244;SDS011;5167;52.164;10.530;2023-04-06T02:14:00;9.10;;;5.07;;
10244;SDS011;5167;52.164;10.530;2023-04-06T02:16:26;8.13;;;5.40;;
10244;SDS011;5167;52.164;10.530;2023-04-06T02:18:51;11.20;;;5.40;;
10244;SDS011;5167;52.164;10.530;2023-04-06T02:21:16;7.57;;;5.73;;
10244;SDS011;5167;52.164;10.530;2023-04-06T02:23:45;10.40;;;5.13;;
10244;SDS011;5167;52.164;10.530;2023-04-06T02:26:14;7.83;;;5.13;;
10244;SDS011;5167;52.164;10.530;2023-04-06T02:28:39;6.47;;;4.87;;
10244;SDS011;5167;52.164;10.530;2023-04-06T02:31:05;8.20;;;5.57;;
10244;SDS011;5167;52.164;10.530;2023-04-06T02:33:30;8.60;;;5.60;;
10244;SDS011;5167;52.164;10.530;2023-04-06T02:35:56;7.20;;;5.57;;
10244;SDS011;5167;52.164;10.530;2023-04-06T02:38:21;8.20;;;4.63;;
10244;SDS011;5167;52.164;10.530;2023-04-06T02:40:47;8.57;;;5.73;;
10244;SDS011;5167;52.164;10.530;2023-04-06T02:43:12;7.57;;;5.27;;
10244;SDS011;5167;52.164;10.530;2023-04-06T02:45:38;8.63;;;5.43;;
10244;SDS011;5167;52.164;10.530;2023-04-06T02:48:03;9.27;;;4.83;;
10244;SDS011;5167;52.164;10.530;2023-04-06T02:50:29;7.00;;;5.47;;
10244;SDS011;5167;52.164;10.530;2023-04-06T02:52:55;9.70;;;6.27;;
10244;SDS011;5167;52.164;10.530;2023-04-06T02:55:21;7.83;;;5.33;;
10244;SDS011;5167;52.164;10.530;2023-04-06T02:57:46;8.03;;;5.20;;
10244;SDS011;5167;52.164;10.530;2023-04-06T03:00:12;7.70;;;5.40;;
10244;SDS011;5167;52.164;10.530;2023-04-06T03:02:37;6.47;;;5.13;;
10244;SDS011;5167;52.164;10.530;2023-04-06T03:05:03;7.60;;;5.23;;
10244;SDS011;5167;52.164;10.530;2023-04-06T03:07:29;8.83;;;5.40;;
10244;SDS011;5167;52.164;10.530;2023-04-06T03:09:55;8.23;;;5.47;;
10244;SDS011;5167;52.164;10.530;2023-04-06T03:12:20;6.90;;;5.27;;
10244;SDS011;5167;52.164;10.530;2023-04-06T03:14:46;7.57;;;5.17;;
10244;SDS011;5167;52.164;10.530;2023-04-06T03:17:11;12.27;;;5.40;;
10244;SDS011;5167;52.164;10.530;2023-04-06T03:19:37;7.33;;;5.20;;
10244;SDS011;5167;52.164;10.530;2023-04-06T03:22:02;10.13;;;5.37;;
10244;SDS011;5167;52.164;10.530;2023-04-06T03:24:28;7.27;;;5.43;;
10244;SDS011;5167;52.164;10.530;2023-04-06T03:26:53;6.87;;;5.13;;
10244;SDS011;5167;52.164;10.530;2023-04-06T03:29:19;9.43;;;5.50;;
10244;SDS011;5167;52.164;10.530;2023-04-06T03:31:45;8.83;;;5.63;;
10244;SDS011;5167;52.164;10.530;2023-04-06T03:34:10;9.23;;;5.47;;
10244;SDS011;5167;52.164;10.530;2023-04-06T03:36:36;7.13;;;5.00;;
10244;SDS011;5167;52.164;10.530;2023-04-06T03:39:02;6.57;;;5.30;;
10244;SDS011;5167;52.164;10.530;2023-04-06T03:41:28;10.13;;;5.57;;
10244;SDS011;5167;52.164;10.530;2023-04-06T03:43:54;10.40;;;5.60;;
10244;SDS011;5167;52.164;10.530;2023-04-06T03:46:19;8.30;;;5.87;;
10244;SDS011;5167;52.164;10.530;2023-04-06T03:48:45;7.40;;;5.30;;
10244;SDS011;5167;52.164;10.530;2023-04-06T03:51:13;9.70;;;5.63;;
10244;SDS011;5167;52.164;10.530;2023-04-06T03:53:38;6.87;;;6.00;;
10244;SDS011;5167;52.164;10.530;2023-04-06T03:56:04;9.73;;;6.30;;
10244;SDS011;5167;52.164;10.530;2023-04-06T03:58:30;10.00;;;6.80;;
10244;SDS011;5167;52.164;10.530;2023-04-06T04:00:55;8.33;;;5.73;;
10244;SDS011;5167;52.164;10.530;2023-04-06T04:03:21;7.93;;;5.73;;
10244;SDS011;5167;52.164;10.530;2023-04-06T04:05:48;10.00;;;5.83;;
10244;SDS011;5167;52.164;10.530;2023-04-06T04:08:15;7.67;;;5.87;;
10244;SDS011;5167;52.164;10.530;2023-04-06T04:10:40;8.57;;;6.60;;
10244;SDS011;5167;52.164;10.530;2023-04-06T04:13:05;9.60;;;6.90;;
10244;SDS011;5167;52.164;10.530;2023-04-06T04:15:31;8.03;;;6.07;;
10244;SDS011;5167;52.164;10.530;2023-04-06T04:17:56;8.53;;;6.30;;
10244;SDS011;5167;52.164;10.530;2023-04-06T04:20:22;13.13;;;6.37;;
10244;SDS011;5167;52.164;10.530;2023-04-06T04:22:47;7.77;;;5.30;;
10244;SDS011;5167;52.164;10.530;2023-04-06T04:25:13;9.93;;;6.57;;
10244;SDS011;5167;52.164;10.530;2023-04-06T04:27:38;8.30;;;6.27;;
10244;SDS011;5167;52.164;10.530;2023-04-06T04:30:05;11.17;;;6.80;;
10244;SDS011;5167;52.164;10.530;2023-04-06T04:32:31;6.43;;;5.50;;
10244;SDS011;5167;52.164;10.530;2023-04-06T04:34:56;11.27;;;6.50;;
10244;SDS011;5167;52.164;10.530;2023-04-06T04:37:22;8.00;;;5.67;;
10244;SDS011;5167;52.164;10.530;2023-04-06T04:39:47;9.13;;;6.03;;
10244;SDS011;5167;52.164;10.530;2023-04-06T04:42:13;10.53;;;6.73;;
10244;SDS011;5167;52.164;10.530;2023-04-06T04:44:39;10.83;;;6.30;;
10244;SDS011;5167;52.164;10.530;2023-04-06T04:47:04;10.83;;;6.33;;
10244;SDS011;5167;52.164;10.530;2023-04-06T04:49:30;17.17;;;6.20;;
10244;SDS011;5167;52.164;10.530;2023-04-06T04:51:56;10.87;;;7.30;;
10244;SDS011;5167;52.164;10.530;2023-04-06T04:54:21;10.03;;;7.13;;
10244;SDS011;5167;52.164;10.530;2023-04-06T04:56:46;11.73;;;7.70;;
10244;SDS011;5167;52.164;10.530;2023-04-06T04:59:12;17.23;;;7.37;;
10244;SDS011;5167;52.164;10.530;2023-04-06T05:01:37;14.40;;;7.83;;
10244;SDS011;5167;52.164;10.530;2023-04-06T05:04:03;16.20;;;7.97;;
10244;SDS011;5167;52.164;10.530;2023-04-06T05:06:28;14.80;;;7.63;;
10244;SDS011;5167;52.164;10.530;2023-04-06T05:08:54;12.23;;;7.83;;
10244;SDS011;5167;52.164;10.530;2023-04-06T05:11:20;14.20;;;8.30;;
10244;SDS011;5167;52.164;10.530;2023-04-06T05:13:46;17.33;;;7.57;;
10244;SDS011;5167;52.164;10.530;2023-04-06T05:16:11;13.63;;;6.53;;
10244;SDS011;5167;52.164;10.530;2023-04-06T05:18:37;11.73;;;7.73;;
10244;SDS011;5167;52.164;10.530;2023-04-06T05:21:02;21.90;;;7.10;;
10244;SDS011;5167;52.164;10.530;2023-04-06T05:23:28;9.80;;;6.43;;
10244;SDS011;5167;52.164;10.530;2023-04-06T05:25:53;11.07;;;7.23;;
10244;SDS011;5167;52.164;10.530;2023-04-06T05:28:19;15.13;;;7.17;;
10244;SDS011;5167;52.164;10.530;2023-04-06T05:30:44;19.40;;;8.40;;
10244;SDS011;5167;52.164;10.530;2023-04-06T05:33:11;9.87;;;7.43;;
10244;SDS011;5167;52.164;10.530;2023-04-06T05:35:37;8.97;;;7.07;;
10244;SDS011;5167;52.164;10.530;2023-04-06T05:38:02;10.77;;;6.80;;
10244;SDS011;5167;52.164;10.530;2023-04-06T05:40:28;14.67;;;7.20;;
10244;SDS011;5167;52.164;10.530;2023-04-06T05:42:53;7.30;;;6.30;;
10244;SDS011;5167;52.164;10.530;2023-04-06T05:45:19;14.60;;;7.20;;
10244;SDS011;5167;52.164;10.530;2023-04-06T05:47:45;13.27;;;7.50;;
10244;SDS011;5167;52.164;10.530;2023-04-06T05:50:11;9.30;;;7.07;;
10244;SDS011;5167;52.164;10.530;2023-04-06T05:52:38;10.17;;;6.60;;
10244;SDS011;5167;52.164;10.530;2023-04-06T05:55:07;9.70;;;6.50;;
10244;SDS011;5167;52.164;10.530;2023-04-06T05:57:34;13.77;;;7.13;;
10244;SDS011;5167;52.164;10.530;2023-04-06T05:59:59;9.97;;;6.83;;
10244;SDS011;5167;52.164;10.530;2023-04-06T06:02:26;15.90;;;8.13;;
10244;SDS011;5167;52.164;10.530;2023-04-06T06:04:51;13.97;;;7.53;;
10244;SDS011;5167;52.164;10.530;2023-04-06T06:07:17;11.97;;;7.70;;
10244;SDS011;5167;52.164;10.530;2023-04-06T06:09:42;11.27;;;7.40;;
10244;SDS011;5167;52.164;10.530;2023-04-06T06:12:08;14.07;;;7.13;;
10244;SDS011;5167;52.164;10.530;2023-04-06T06:14:33;11.70;;;7.60;;
10244;SDS011;5167;52.164;10.530;2023-04-06T06:16:59;13.93;;;7.87;;
10244;SDS011;5167;52.164;10.530;2023-04-06T06:19:25;11.07;;;7.03;;
10244;SDS011;5167;52.164;10.530;2023-04-06T06:21:50;10.07;;;7.20;;
10244;SDS011;5167;52.164;10.530;2023-04-06T06:24:16;9.53;;;7.33;;
10244;SDS011;5167;52.164;10.530;2023-04-06T06:26:41;11.60;;;6.87;;
10244;SDS011;5167;52.164;10.530;2023-04-06T06:29:08;10.33;;;7.30;;
10244;SDS011;5167;52.164;10.530;2023-04-06T06:31:33;10.40;;;7.90;;
10244;SDS011;5167;52.164;10.530;2023-04-06T06:33:59;10.70;;;8.03;;
10244;SDS011;5167;52.164;10.530;2023-04-06T06:36:25;12.10;;;7.80;;
10244;SDS011;5167;52.164;10.530;2023-04-06T06:38:50;9.17;;;7.40;;
10244;SDS011;5167;52.164;10.530;2023-04-06T06:41:16;12.97;;;7.67;;
10244;SDS011;5167;52.164;10.530;2023-04-06T06:43:42;10.13;;;7.73;;
10244;SDS011;5167;52.164;10.530;2023-04-06T06:46:07;11.03;;;7.87;;
10244;SDS011;5167;52.164;10.530;2023-04-06T06:48:33;12.37;;;7.67;;
10244;SDS011;5167;52.164;10.530;2023-04-06T06:50:58;10.77;;;7.53;;
10244;SDS011;5167;52.164;10.530;2023-04-06T06:53:24;9.97;;;7.07;;
10244;SDS011;5167;52.164;10.530;2023-04-06T06:55:49;12.20;;;7.87;;
10244;SDS011;5167;52.164;10.530;2023-04-06T06:58:17;13.20;;;8.00;;
10244;SDS011;5167;52.164;10.530;2023-04-06T07:00:44;11.17;;;7.27;;
10244;SDS011;5167;52.164;10.530;2023-04-06T07:03:09;11.27;;;7.00;;
10244;SDS011;5167;52.164;10.530;2023-04-06T07:05:35;10.30;;;7.70;;
10244;SDS011;5167;52.164;10.530;2023-04-06T07:08:00;12.00;;;7.47;;
10244;SDS011;5167;52.164;10.530;2023-04-06T07:10:26;13.33;;;7.27;;
10244;SDS011;5167;52.164;10.530;2023-04-06T07:12:51;10.30;;;7.60;;
10244;SDS011;5167;52.164;10.530;2023-04-06T07:15:17;8.97;;;6.77;;
10244;SDS011;5167;52.164;10.530;2023-04-06T07:17:42;9.60;;;7.20;;
10244;SDS011;5167;52.164;10.530;2023-04-06T07:20:10;8.87;;;7.03;;
10244;SDS011;5167;52.164;10.530;2023-04-06T07:22:35;13.47;;;7.37;;
10244;SDS011;5167;52.164;10.530;2023-04-06T07:25:01;10.80;;;7.17;;
10244;SDS011;5167;52.164;10.530;2023-04-06T07:27:26;9.17;;;6.50;;
10244;SDS011;5167;52.164;10.530;2023-04-06T07:29:52;7.57;;;6.43;;
10244;SDS011;5167;52.164;10.530;2023-04-06T07:32:17;13.90;;;7.30;;
10244;SDS011;5167;52.164;10.530;2023-04-06T07:34:43;11.10;;;7.40;;
10244;SDS011;5167;52.164;10.530;2023-04-06T07:37:10;8.23;;;6.77;;
10244;SDS011;5167;52.164;10.530;2023-04-06T07:39:35;19.13;;;7.47;;
10244;SDS011;5167;52.164;10.530;2023-04-06T07:42:01;11.17;;;7.30;;
10244;SDS011;5167;52.164;10.530;2023-04-06T07:44:26;9.70;;;6.43;;
10244;SDS011;5167;52.164;10.530;2023-04-06T07:46:52;10.10;;;6.40;;
10244;SDS011;5167;52.164;10.530;2023-04-06T07:49:17;8.77;;;6.60;;
10244;SDS011;5167;52.164;10.530;2023-04-06T07:51:43;9.93;;;6.57;;
10244;SDS011;5167;52.164;10.530;2023-04-06T07:54:08;8.00;;;6.10;;
10244;SDS011;5167;52.164;10.530;2023-04-06T07:56:34;9.57;;;6.63;;
10244;SDS011;5167;52.164;10.530;2023-04-06T07:58:59;10.87;;;6.37;;
10244;SDS011;5167;52.164;10.530;2023-04-06T08:01:25;8.57;;;6.17;;
10244;SDS011;5167;52.164;10.530;2023-04-06T08:03:51;8.77;;;6.07;;
10244;SDS011;5167;52.164;10.530;2023-04-06T08:06:16;12.40;;;5.50;;
10244;SDS011;5167;52.164;10.530;2023-04-06T08:08:42;7.07;;;5.33;;
10244;SDS011;5167;52.164;10.530;2023-04-06T08:11:07;8.10;;;5.90;;
10244;SDS011;5167;52.164;10.530;2023-04-06T08:13:34;8.43;;;5.43;;
10244;SDS011;5167;52.164;10.530;2023-04-06T08:16:00;8.23;;;6.00;;
10244;SDS011;5167;52.164;10.530;2023-04-06T08:18:26;7.57;;;5.40;;
10244;SDS011;5167;52.164;10.530;2023-04-06T08:20:51;8.00;;;5.23;;
10244;SDS011;5167;52.164;10.530;2023-04-06T08:23:17;9.50;;;5.70;;
10244;SDS011;5167;52.164;10.530;2023-04-06T08:25:42;8.32;;;5.10;;
10244;SDS011;5167;52.164;10.530;2023-04-06T08:28:08;7.55;;;5.57;;
10244;SDS011;5167;52.164;10.530;2023-04-06T08:30:34;12.00;;;5.85;;
10244;SDS011;5167;52.164;10.530;2023-04-06T08:33:00;7.03;;;5.70;;
10244;SDS011;5167;52.164;10.530;2023-04-06T08:35:26;8.27;;;5.65;;
10244;SDS011;5167;52.164;10.530;2023-04-06T08:37:52;7.20;;;5.43;;
10244;SDS011;5167;52.164;10.530;2023-04-06T08:40:18;7.75;;;5.15;;
10244;SDS011;5167;52.164;10.530;2023-04-06T08:42:49;8.07;;;5.32;;
10244;SDS011;5167;52.164;10.530;2023-04-06T08:45:16;9.15;;;5.35;;
10244;SDS011;5167;52.164;10.530;2023-04-06T08:47:42;6.30;;;4.93;;
10244;SDS011;5167;52.164;10.530;2023-04-06T08:50:09;7.90;;;5.50;;
10244;SDS011;5167;52.164;10.530;2023-04-06T08:52:36;7.05;;;5.07;;
10244;SDS011;5167;52.164;10.530;2023-04-06T08:55:03;8.45;;;6.10;;
10244;SDS011;5167;52.164;10.530;2023-04-06T08:57:28;10.57;;;6.00;;
10244;SDS011;5167;52.164;10.530;2023-04-06T08:59:55;9.02;;;5.65;;
10244;SDS011;5167;52.164;10.530;2023-04-06T09:02:21;9.00;;;5.43;;
10244;SDS011;5167;52.164;10.530;2023-04-06T09:04:47;8.75;;;5.88;;
10244;SDS011;5167;52.164;10.530;2023-04-06T09:07:15;10.52;;;5.18;;
10244;SDS011;5167;52.164;10.530;2023-04-06T09:09:41;6.20;;;5.07;;
10244;SDS011;5167;52.164;10.530;2023-04-06T09:12:21;8.80;;;5.70;;
10244;SDS011;5167;52.164;10.530;2023-04-06T09:14:48;6.70;;;5.43;;
10244;SDS011;5167;52.164;10.530;2023-04-06T09:17:20;7.50;;;5.78;;
10244;SDS011;5167;52.164;10.530;2023-04-06T09:19:47;6.85;;;5.90;;
10244;SDS011;5167;52.164;10.530;2023-04-06T09:22:12;9.68;;;5.88;;
10244;SDS011;5167;52.164;10.530;2023-04-06T09:24:48;9.77;;;5.60;;
10244;SDS011;5167;52.164;10.530;2023-04-06T09:27:15;7.63;;;5.55;;
10244;SDS011;5167;52.164;10.530;2023-04-06T09:29:41;7.53;;;5.45;;
10244;SDS011;5167;52.164;10.530;2023-04-06T09:32:08;8.85;;;5.63;;
10244;SDS011;5167;52.164;10.530;2023-04-06T09:34:38;12.18;;;5.43;;
10244;SDS011;5167;52.164;10.530;2023-04-06T09:39:39;6.70;;;5.10;;
10244;SDS011;5167;52.164;10.530;2023-04-06T09:42:05;8.80;;;5.72;;
10244;SDS011;5167;52.164;10.530;2023-04-06T09:44:30;10.35;;;5.13;;
10244;SDS011;5167;52.164;10.530;2023-04-06T09:46:56;6.97;;;5.47;;
10244;SDS011;5167;52.164;10.530;2023-04-06T09:49:22;6.65;;;5.32;;
10244;SDS011;5167;52.164;10.530;2023-04-06T09:51:53;8.63;;;5.88;;
10244;SDS011;5167;52.164;10.530;2023-04-06T09:54:22;8.98;;;5.55;;
10244;SDS011;5167;52.164;10.530;2023-04-06T09:56:56;7.40;;;5.10;;
10244;SDS011;5167;52.164;10.530;2023-04-06T09:59:37;8.75;;;5.72;;
10244;SDS011;5167;52.164;10.530;2023-04-06T10:02:15;8.02;;;5.28;;
10244;SDS011;5167;52.164;10.530;2023-04-06T10:04:59;5.55;;;4.78;;
10244;SDS011;5167;52.164;10.530;2023-04-06T10:07:33;7.85;;;4.88;;
10244;SDS011;5167;52.164;10.530;2023-04-06T10:10:00;6.63;;;4.80;;
10244;SDS011;5167;52.164;10.530;2023-04-06T10:12:27;9.00;;;5.95;;
10244;SDS011;5167;52.164;10.530;2023-04-06T10:14:52;7.45;;;5.55;;
10244;SDS011;5167;52.164;10.530;2023-04-06T10:17:19;11.68;;;5.32;;
10244;SDS011;5167;52.164;10.530;2023-04-06T10:19:47;8.10;;;5.10;;
10244;SDS011;5167;52.164;10.530;2023-04-06T10:22:22;8.23;;;5.20;;
10244;SDS011;5167;52.164;10.530;2023-04-06T10:24:51;8.27;;;5.35;;
10244;SDS011;5167;52.164;10.530;2023-04-06T10:27:26;9.88;;;5.60;;
10244;SDS011;5167;52.164;10.530;2023-04-06T10:29:53;9.30;;;5.43;;
10244;SDS011;5167;52.164;10.530;2023-04-06T10:32:18;7.88;;;4.93;;
10244;SDS011;5167;52.164;10.530;2023-04-06T10:34:43;6.95;;;5.43;;
10244;SDS011;5167;52.164;10.530;2023-04-06T10:37:15;9.30;;;4.82;;
10244;SDS011;5167;52.164;10.530;2023-04-06T10:39:52;8.05;;;5.40;;
10244;SDS011;5167;52.164;10.530;2023-04-06T10:42:36;11.00;;;6.05;;
10244;SDS011;5167;52.164;10.530;2023-04-06T10:45:04;7.38;;;5.53;;
10244;SDS011;5167;52.164;10.530;2023-04-06T10:47:38;7.63;;;5.53;;
10244;SDS011;5167;52.164;10.530;2023-04-06T10:50:07;13.13;;;5.57;;
10244;SDS011;5167;52.164;10.530;2023-04-06T10:52:32;9.90;;;5.70;;
10244;SDS011;5167;52.164;10.530;2023-04-06T10:54:58;9.07;;;5.80;;
10244;SDS011;5167;52.164;10.530;2023-04-06T10:57:27;7.60;;;5.43;;
10244;SDS011;5167;52.164;10.530;2023-04-06T10:59:55;9.50;;;6.25;;
10244;SDS011;5167;52.164;10.530;2023-04-06T11:02:21;7.95;;;4.65;;
10244;SDS011;5167;52.164;10.530;2023-04-06T11:04:56;6.88;;;5.35;;
10244;SDS011;5167;52.164;10.530;2023-04-06T11:07:25;8.73;;;4.88;;
10244;SDS011;5167;52.164;10.530;2023-04-06T11:09:52;8.98;;;5.28;;
10244;SDS011;5167;52.164;10.530;2023-04-06T11:12:27;10.63;;;6.45;;
10244;SDS011;5167;52.164;10.530;2023-04-06T11:14:57;7.20;;;5.70;;
10244;SDS011;5167;52.164;10.530;2023-04-06T11:17:29;8.13;;;5.80;;
10244;SDS011;5167;52.164;10.530;2023-04-06T11:19:56;6.97;;;4.97;;
10244;SDS011;5167;52.164;10.530;2023-04-06T11:22:22;9.70;;;4.70;;
10244;SDS011;5167;52.164;10.530;2023-04-06T11:24:48;10.18;;;5.05;;
10244;SDS011;5167;52.164;10.530;2023-04-06T11:27:14;6.40;;;4.70;;
10244;SDS011;5167;52.164;10.530;2023-04-06T11:29:41;8.27;;;4.97;;
10244;SDS011;5167;52.164;10.530;2023-04-06T11:32:08;8.48;;;5.00;;
10244;SDS011;5167;52.164;10.530;2023-04-06T11:34:34;8.90;;;4.75;;
10244;SDS011;5167;52.164;10.530;2023-04-06T11:37:09;9.48;;;5.40;;
10244;SDS011;5167;52.164;10.530;2023-04-06T11:39:40;6.45;;;4.60;;
10244;SDS011;5167;52.164;10.530;2023-04-06T11:42:08;7.80;;;4.72;;
10244;SDS011;5167;52.164;10.530;2023-04-06T11:44:35;5.57;;;4.50;;
10244;SDS011;5167;52.164;10.530;2023-04-06T11:47:03;6.40;;;4.57;;
10244;SDS011;5167;52.164;10.530;2023-04-06T11:49:31;6.30;;;4.47;;
10244;SDS011;5167;52.164;10.530;2023-04-06T11:51:57;7.47;;;5.20;;
10244;SDS011;5167;52.164;10.530;2023-04-06T11:54:36;7.80;;;5.57;;
10244;SDS011;5167;52.164;10.530;2023-04-06T11:57:03;7.30;;;4.68;;
10244;SDS011;5167;52.164;10.530;2023-04-06T11:59:30;5.10;;;4.40;;
10244;SDS011;5167;52.164;10.530;2023-04-06T12:01:59;7.25;;;4.82;;
10244;SDS011;5167;52.164;10.530;2023-04-06T12:04:24;8.20;;;4.85;;
10244;SDS011;5167;52.164;10.530;2023-04-06T12:06:50;9.05;;;5.20;;
10244;SDS011;5167;52.164;10.530;2023-04-06T12:09:18;6.53;;;4.60;;
10244;SDS011;5167;52.164;10.530;2023-04-06T12:11:44;9.48;;;5.40;;
10244;SDS011;5167;52.164;10.530;2023-04-06T12:14:10;7.22;;;5.13;;
10244;SDS011;5167;52.164;10.530;2023-04-06T12:16:36;8.02;;;5.57;;
10244;SDS011;5167;52.164;10.530;2023-04-06T12:19:02;7.60;;;5.30;;
10244;SDS011;5167;52.164;10.530;2023-04-06T12:21:28;10.27;;;6.22;;
10244;SDS011;5167;52.164;10.530;2023-04-06T12:23:55;7.00;;;4.70;;
10244;SDS011;5167;52.164;10.530;2023-04-06T12:26:21;7.63;;;5.07;;
10244;SDS011;5167;52.164;10.530;2023-04-06T12:28:47;9.70;;;5.50;;
10244;SDS011;5167;52.164;10.530;2023-04-06T12:31:16;6.57;;;4.88;;
10244;SDS011;5167;52.164;10.530;2023-04-06T12:33:43;7.22;;;5.07;;
10244;SDS011;5167;52.164;10.530;2023-04-06T12:36:12;7.13;;;5.30;;
10244;SDS011;5167;52.164;10.530;2023-04-06T12:38:38;8.05;;;4.32;;
10244;SDS011;5167;52.164;10.530;2023-04-06T12:41:05;6.72;;;4.57;;
10244;SDS011;5167;52.164;10.530;2023-04-06T12:43:31;7.28;;;4.38;;
10244;SDS011;5167;52.164;10.530;2023-04-06T12:45:57;9.65;;;4.72;;
10244;SDS011;5167;52.164;10.530;2023-04-06T12:48:22;7.53;;;5.05;;
10244;SDS011;5167;52.164;10.530;2023-04-06T12:50:57;9.85;;;5.22;;
10244;SDS011;5167;52.164;10.530;2023-04-06T12:53:23;6.03;;;4.40;;
10244;SDS011;5167;52.164;10.530;2023-04-06T12:55:49;5.80;;;4.63;;
10244;SDS011;5167;52.164;10.530;2023-04-06T12:58:15;5.65;;;4.43;;
10244;SDS011;5167;52.164;10.530;2023-04-06T13:00:41;6.85;;;4.20;;
10244;SDS011;5167;52.164;10.530;2023-04-06T13:03:07;6.50;;;4.45;;
10244;SDS011;5167;52.164;10.530;2023-04-06T13:05:32;7.85;;;4.55;;
10244;SDS011;5167;52.164;10.530;2023-04-06T13:07:58;6.70;;;4.47;;
10244;SDS011;5167;52.164;10.530;2023-04-06T13:10:23;8.18;;;5.20;;
10244;SDS011;5167;52.164;10.530;2023-04-06T13:12:49;6.68;;;4.97;;
10244;SDS011;5167;52.164;10.530;2023-04-06T13:15:14;6.45;;;4.00;;
10244;SDS011;5167;52.164;10.530;2023-04-06T13:17:40;4.95;;;4.15;;
10244;SDS011;5167;52.164;10.530;2023-04-06T13:20:06;6.68;;;4.40;;
10244;SDS011;5167;52.164;10.530;2023-04-06T13:22:32;6.50;;;3.97;;
10244;SDS011;5167;52.164;10.530;2023-04-06T13:24:57;8.55;;;4.53;;
10244;SDS011;5167;52.164;10.530;2023-04-06T13:27:23;5.85;;;4.15;;
10244;SDS011;5167;52.164;10.530;2023-04-06T13:29:48;6.93;;;4.47;;
10244;SDS011;5167;52.164;10.530;2023-04-06T13:32:14;6.40;;;4.15;;
10244;SDS011;5167;52.164;10.530;2023-04-06T13:34:39;6.30;;;4.30;;
10244;SDS011;5167;52.164;10.530;2023-04-06T13:37:09;6.70;;;4.30;;
10244;SDS011;5167;52.164;10.530;2023-04-06T13:39:36;4.57;;;3.95;;
10244;SDS011;5167;52.164;10.530;2023-04-06T13:42:02;6.00;;;4.47;;
10244;SDS011;5167;52.164;10.530;2023-04-06T13:44:28;6.18;;;4.35;;
10244;SDS011;5167;52.164;10.530;2023-04-06T13:46:53;8.45;;;4.82;;
10244;SDS011;5167;52.164;10.530;2023-04-06T13:49:19;8.32;;;4.97;;
10244;SDS011;5167;52.164;10.530;2023-04-06T13:51:45;6.05;;;3.90;;
10244;SDS011;5167;52.164;10.530;2023-04-06T13:54:10;6.50;;;4.45;;
10244;SDS011;5167;52.164;10.530;2023-04-06T13:56:35;5.68;;;4.10;;
10244;SDS011;5167;52.164;10.530;2023-04-06T14:01:28;6.65;;;4.38;;
10244;SDS011;5167;52.164;10.530;2023-04-06T14:03:53;7.07;;;4.53;;
10244;SDS011;5167;52.164;10.530;2023-04-06T14:06:19;7.53;;;4.22;;
10244;SDS011;5167;52.164;10.530;2023-04-06T14:08:44;6.20;;;4.60;;
10244;SDS011;5167;52.164;10.530;2023-04-06T14:11:11;7.20;;;4.43;;
10244;SDS011;5167;52.164;10.530;2023-04-06T14:13:38;6.05;;;4.32;;
10244;SDS011;5167;52.164;10.530;2023-04-06T14:16:04;5.70;;;4.18;;
10244;SDS011;5167;52.164;10.530;2023-04-06T14:18:30;7.70;;;4.90;;
10244;SDS011;5167;52.164;10.530;2023-04-06T14:20:56;5.88;;;4.22;;
10244;SDS011;5167;52.164;10.530;2023-04-06T14:23:23;7.00;;;4.85;;
10244;SDS011;5167;52.164;10.530;2023-04-06T14:25:51;6.80;;;4.40;;
10244;SDS011;5167;52.164;10.530;2023-04-06T14:28:25;6.80;;;5.30;;
10244;SDS011;5167;52.164;10.530;2023-04-06T14:30:51;7.47;;;4.88;;
10244;SDS011;5167;52.164;10.530;2023-04-06T14:33:17;8.57;;;5.38;;
10244;SDS011;5167;52.164;10.530;2023-04-06T14:35:42;9.30;;;4.70;;
10244;SDS011;5167;52.164;10.530;2023-04-06T14:38:08;8.35;;;4.63;;
10244;SDS011;5167;52.164;10.530;2023-04-06T14:40:36;5.57;;;4.32;;
10244;SDS011;5167;52.164;10.530;2023-04-06T14:43:03;8.02;;;4.90;;
10244;SDS011;5167;52.164;10.530;2023-04-06T14:45:29;6.88;;;5.32;;